sensor_id;sensor_type;location;lat;lon;timestamp;P1;durP1;ratioP1;P2;durP2;ratioP2
14348;SDS011;7258;50.376;8.742;2023-11-21T00:00:30;38.47;;;17.13;;
14348;SDS011;7258;50.376;8.742;2023-11-21T00:02:33;37.70;;;17.00;;
14348;SDS011;7258;50.376;8.742;2023-11-21T00:04:35;35.20;;;16.20;;
14348;SDS011;7258;50.376;8.742;2023-11-21T00:06:38;40.00;;;16.23;;
14348;SDS011;7258;50.376;8.742;2023-11-21T00:08:42;36.80;;;17.13;;
14348;SDS011;7258;50.376;8.742;2023-11-21T00:10:46;32.97;;;16.03;;
14348;SDS011;7258;50.376;8.742;2023-11-21T00:12:49;38.23;;;16.60;;
14348;SDS011;7258;50.376;8.742;2023-11-21T00:14:52;36.73;;;16.10;;
14348;SDS011;7258;50.376;8.742;2023-11-21T00:16:58;38.67;;;16.90;;
14348;SDS011;7258;50.376;8.742;2023-11-21T00:19:01;39.40;;;16.47;;
14348;SDS011;7258;50.376;8.742;2023-11-21T00:21:04;37.83;;;17.77;;
14348;SDS011;7258;50.376;8.742;2023-11-21T00:23:07;32.73;;;16.17;;
14348;SDS011;7258;50.376;8.742;2023-11-21T00:25:11;37.47;;;17.17;;
14348;SDS011;7258;50.376;8.742;2023-11-21T00:27:18;40.30;;;15.93;;
14348;SDS011;7258;50.376;8.742;2023-11-21T00:29:20;35.27;;;15.57;;
14348;SDS011;7258;50.376;8.742;2023-11-21T00:31:22;33.97;;;15.17;;
14348;SDS011;7258;50.376;8.742;2023-11-21T00:33:25;30.33;;;14.97;;
14348;SDS011;7258;50.376;8.742;2023-11-21T00:35:28;34.77;;;15.20;;
14348;SDS011;7258;50.376;8.742;2023-11-21T00:37:32;37.27;;;16.30;;
14348;SDS011;7258;50.376;8.742;2023-11-21T00:39:34;32.50;;;15.77;;
14348;SDS011;7258;50.376;8.742;2023-11-21T00:41:37;29.70;;;14.73;;
14348;SDS011;7258;50.376;8.742;2023-11-21T00:43:41;34.27;;;15.63;;
14348;SDS011;7258;50.376;8.742;2023-11-21T00:45:45;37.50;;;16.23;;
14348;SDS011;7258;50.376;8.742;2023-11-21T00:47:50;35.90;;;16.40;;
14348;SDS011;7258;50.376;8.742;2023-11-21T00:49:53;38.80;;;16.70;;
14348;SDS011;7258;50.376;8.742;2023-11-21T00:51:55;38.70;;;16.40;;
14348;SDS011;7258;50.376;8.742;2023-11-21T00:53:59;37.70;;;15.77;;
14348;SDS011;7258;50.376;8.742;2023-11-21T00:56:02;45.50;;;17.47;;
14348;SDS011;7258;50.376;8.742;2023-11-21T00:58:05;38.83;;;16.13;;
14348;SDS011;7258;50.376;8.742;2023-11-21T01:00:10;35.63;;;15.83;;
14348;SDS011;7258;50.376;8.742;2023-11-21T01:02:15;45.10;;;16.13;;
14348;SDS011;7258;50.376;8.742;2023-11-21T01:04:18;35.03;;;15.23;;
14348;SDS011;7258;50.376;8.742;2023-11-21T01:06:21;39.10;;;15.37;;
14348;SDS011;7258;50.376;8.742;2023-11-21T01:08:24;44.07;;;17.27;;
14348;SDS011;7258;50.376;8.742;2023-11-21T01:10:27;39.17;;;17.47;;
14348;SDS011;7258;50.376;8.742;2023-11-21T01:12:30;48.93;;;18.67;;
14348;SDS011;7258;50.376;8.742;2023-11-21T01:14:33;45.60;;;18.03;;
14348;SDS011;7258;50.376;8.742;2023-11-21T01:16:38;41.67;;;17.00;;
14348;SDS011;7258;50.376;8.742;2023-11-21T01:18:40;38.60;;;16.70;;
14348;SDS011;7258;50.376;8.742;2023-11-21T01:20:43;37.97;;;16.27;;
14348;SDS011;7258;50.376;8.742;2023-11-21T01:22:48;36.70;;;16.93;;
14348;SDS011;7258;50.376;8.742;2023-11-21T01:24:50;36.63;;;16.03;;
14348;SDS011;7258;50.376;8.742;2023-11-21T01:26:53;39.13;;;16.20;;
14348;SDS011;7258;50.376;8.742;2023-11-21T01:28:58;46.77;;;16.73;;
14348;SDS011;7258;50.376;8.742;2023-11-21T01:31:00;44.87;;;17.40;;
14348;SDS011;7258;50.376;8.742;2023-11-21T01:33:04;42.37;;;18.00;;
14348;SDS011;7258;50.376;8.742;2023-11-21T01:35:07;46.13;;;18.50;;
14348;SDS011;7258;50.376;8.742;2023-11-21T01:37:11;41.03;;;17.90;;
14348;SDS011;7258;50.376;8.742;2023-11-21T01:39:15;35.47;;;17.37;;
14348;SDS011;7258;50.376;8.742;2023-11-21T01:41:24;38.23;;;16.43;;
14348;SDS011;7258;50.376;8.742;2023-11-21T01:43:28;39.67;;;17.20;;
14348;SDS011;7258;50.376;8.742;2023-11-21T01:45:33;41.63;;;17.67;;
14348;SDS011;7258;50.376;8.742;2023-11-21T01:47:36;39.17;;;17.10;;
14348;SDS011;7258;50.376;8.742;2023-11-21T01:49:40;44.10;;;17.57;;
14348;SDS011;7258;50.376;8.742;2023-11-21T01:51:47;39.07;;;17.37;;
14348;SDS011;7258;50.376;8.742;2023-11-21T01:53:51;35.37;;;16.07;;
14348;SDS011;7258;50.376;8.742;2023-11-21T01:55:54;35.73;;;16.80;;
14348;SDS011;7258;50.376;8.742;2023-11-21T01:57:59;39.60;;;16.53;;
14348;SDS011;7258;50.376;8.742;2023-11-21T02:00:03;37.20;;;16.60;;
14348;SDS011;7258;50.376;8.742;2023-11-21T02:02:16;42.43;;;16.57;;
14348;SDS011;7258;50.376;8.742;2023-11-21T02:04:18;37.93;;;17.40;;
14348;SDS011;7258;50.376;8.742;2023-11-21T02:06:23;41.63;;;17.97;;
14348;SDS011;7258;50.376;8.742;2023-11-21T02:08:27;50.73;;;17.70;;
14348;SDS011;7258;50.376;8.742;2023-11-21T02:10:30;42.33;;;17.07;;
14348;SDS011;7258;50.376;8.742;2023-11-21T02:12:33;38.90;;;15.60;;
14348;SDS011;7258;50.376;8.742;2023-11-21T02:14:36;42.33;;;15.23;;
14348;SDS011;7258;50.376;8.742;2023-11-21T02:16:39;37.43;;;15.43;;
14348;SDS011;7258;50.376;8.742;2023-11-21T02:18:41;41.17;;;16.17;;
14348;SDS011;7258;50.376;8.742;2023-11-21T02:20:45;43.57;;;15.97;;
14348;SDS011;7258;50.376;8.742;2023-11-21T02:22:49;37.00;;;14.83;;
14348;SDS011;7258;50.376;8.742;2023-11-21T02:24:54;48.33;;;16.70;;
14348;SDS011;7258;50.376;8.742;2023-11-21T02:26:57;37.27;;;14.50;;
14348;SDS011;7258;50.376;8.742;2023-11-21T02:28:59;44.10;;;14.67;;
14348;SDS011;7258;50.376;8.742;2023-11-21T02:31:02;34.47;;;13.53;;
14348;SDS011;7258;50.376;8.742;2023-11-21T02:33:06;27.97;;;11.83;;
14348;SDS011;7258;50.376;8.742;2023-11-21T02:35:09;27.70;;;11.57;;
14348;SDS011;7258;50.376;8.742;2023-11-21T02:37:11;31.50;;;12.67;;
14348;SDS011;7258;50.376;8.742;2023-11-21T02:39:15;29.50;;;11.63;;
14348;SDS011;7258;50.376;8.742;2023-11-21T02:41:18;31.33;;;12.73;;
14348;SDS011;7258;50.376;8.742;2023-11-21T02:43:20;39.10;;;13.40;;
14348;SDS011;7258;50.376;8.742;2023-11-21T02:45:23;40.00;;;14.03;;
14348;SDS011;7258;50.376;8.742;2023-11-21T02:47:25;51.27;;;14.47;;
14348;SDS011;7258;50.376;8.742;2023-11-21T02:49:28;44.97;;;14.80;;
14348;SDS011;7258;50.376;8.742;2023-11-21T02:51:32;51.27;;;15.23;;
14348;SDS011;7258;50.376;8.742;2023-11-21T02:53:35;53.60;;;14.87;;
14348;SDS011;7258;50.376;8.742;2023-11-21T02:55:41;59.60;;;15.20;;
14348;SDS011;7258;50.376;8.742;2023-11-21T02:57:44;53.77;;;15.20;;
14348;SDS011;7258;50.376;8.742;2023-11-21T02:59:46;50.77;;;13.53;;
14348;SDS011;7258;50.376;8.742;2023-11-21T03:01:49;47.77;;;13.40;;
14348;SDS011;7258;50.376;8.742;2023-11-21T03:03:51;50.43;;;13.40;;
14348;SDS011;7258;50.376;8.742;2023-11-21T03:05:55;43.83;;;15.30;;
14348;SDS011;7258;50.376;8.742;2023-11-21T03:07:57;62.17;;;15.47;;
14348;SDS011;7258;50.376;8.742;2023-11-21T03:10:00;59.53;;;14.80;;
14348;SDS011;7258;50.376;8.742;2023-11-21T03:12:05;64.57;;;14.83;;
14348;SDS011;7258;50.376;8.742;2023-11-21T03:14:07;71.93;;;18.63;;
14348;SDS011;7258;50.376;8.742;2023-11-21T03:16:10;50.90;;;17.10;;
14348;SDS011;7258;50.376;8.742;2023-11-21T03:18:12;61.03;;;18.23;;
14348;SDS011;7258;50.376;8.742;2023-11-21T03:20:15;93.33;;;20.90;;
14348;SDS011;7258;50.376;8.742;2023-11-21T03:22:18;56.03;;;16.27;;
14348;SDS011;7258;50.376;8.742;2023-11-21T03:24:21;81.37;;;19.27;;
14348;SDS011;7258;50.376;8.742;2023-11-21T03:26:23;73.93;;;19.07;;
14348;SDS011;7258;50.376;8.742;2023-11-21T03:28:27;72.87;;;18.97;;
14348;SDS011;7258;50.376;8.742;2023-11-21T03:30:31;73.93;;;19.83;;
14348;SDS011;7258;50.376;8.742;2023-11-21T03:32:34;106.77;;;23.53;;
14348;SDS011;7258;50.376;8.742;2023-11-21T03:34:48;90.13;;;20.70;;
14348;SDS011;7258;50.376;8.742;2023-11-21T03:36:55;105.30;;;22.60;;
14348;SDS011;7258;50.376;8.742;2023-11-21T03:38:58;92.07;;;21.40;;
14348;SDS011;7258;50.376;8.742;2023-11-21T03:41:01;101.23;;;24.53;;
14348;SDS011;7258;50.376;8.742;2023-11-21T03:43:03;96.07;;;23.93;;
14348;SDS011;7258;50.376;8.742;2023-11-21T03:45:09;103.87;;;23.63;;
14348;SDS011;7258;50.376;8.742;2023-11-21T03:47:11;129.77;;;25.67;;
14348;SDS011;7258;50.376;8.742;2023-11-21T03:49:14;125.13;;;23.73;;
14348;SDS011;7258;50.376;8.742;2023-11-21T03:51:16;125.27;;;24.60;;
14348;SDS011;7258;50.376;8.742;2023-11-21T03:53:19;110.33;;;23.30;;
14348;SDS011;7258;50.376;8.742;2023-11-21T03:55:22;119.43;;;22.90;;
14348;SDS011;7258;50.376;8.742;2023-11-21T03:57:26;117.60;;;21.70;;
14348;SDS011;7258;50.376;8.742;2023-11-21T03:59:29;95.60;;;18.93;;
14348;SDS011;7258;50.376;8.742;2023-11-21T04:01:33;104.83;;;18.30;;
14348;SDS011;7258;50.376;8.742;2023-11-21T04:03:36;74.37;;;16.63;;
14348;SDS011;7258;50.376;8.742;2023-11-21T04:05:41;85.17;;;17.90;;
14348;SDS011;7258;50.376;8.742;2023-11-21T04:07:44;54.13;;;15.03;;
14348;SDS011;7258;50.376;8.742;2023-11-21T04:09:47;35.90;;;11.10;;
14348;SDS011;7258;50.376;8.742;2023-11-21T04:11:50;34.97;;;10.20;;
14348;SDS011;7258;50.376;8.742;2023-11-21T04:13:52;24.07;;;8.43;;
14348;SDS011;7258;50.376;8.742;2023-11-21T04:15:55;14.87;;;6.10;;
14348;SDS011;7258;50.376;8.742;2023-11-21T04:18:00;15.40;;;4.93;;
14348;SDS011;7258;50.376;8.742;2023-11-21T04:20:03;6.47;;;3.73;;
14348;SDS011;7258;50.376;8.742;2023-11-21T04:22:10;8.90;;;3.83;;
14348;SDS011;7258;50.376;8.742;2023-11-21T04:24:12;7.33;;;4.63;;
14348;SDS011;7258;50.376;8.742;2023-11-21T04:26:15;5.43;;;3.53;;
14348;SDS011;7258;50.376;8.742;2023-11-21T04:28:18;6.90;;;3.40;;
14348;SDS011;7258;50.376;8.742;2023-11-21T04:30:20;6.70;;;3.03;;
14348;SDS011;7258;50.376;8.742;2023-11-21T04:32:23;5.73;;;2.90;;
14348;SDS011;7258;50.376;8.742;2023-11-21T04:34:26;5.67;;;3.20;;
14348;SDS011;7258;50.376;8.742;2023-11-21T04:36:31;4.53;;;3.00;;
14348;SDS011;7258;50.376;8.742;2023-11-21T04:38:33;4.60;;;2.77;;
14348;SDS011;7258;50.376;8.742;2023-11-21T04:40:36;5.07;;;3.30;;
14348;SDS011;7258;50.376;8.742;2023-11-21T04:42:39;5.17;;;3.53;;
14348;SDS011;7258;50.376;8.742;2023-11-21T04:44:42;14.23;;;11.13;;
14348;SDS011;7258;50.376;8.742;2023-11-21T04:46:45;12.70;;;9.67;;
14348;SDS011;7258;50.376;8.742;2023-11-21T04:48:48;10.77;;;8.10;;
14348;SDS011;7258;50.376;8.742;2023-11-21T04:50:52;7.37;;;5.83;;
14348;SDS011;7258;50.376;8.742;2023-11-21T04:52:54;12.50;;;5.40;;
14348;SDS011;7258;50.376;8.742;2023-11-21T04:54:57;11.37;;;5.27;;
14348;SDS011;7258;50.376;8.742;2023-11-21T04:57:02;6.40;;;3.83;;
14348;SDS011;7258;50.376;8.742;2023-11-21T04:59:10;23.50;;;18.90;;
14348;SDS011;7258;50.376;8.742;2023-11-21T05:01:12;32.60;;;29.33;;
14348;SDS011;7258;50.376;8.742;2023-11-21T05:03:15;12.10;;;8.37;;
14348;SDS011;7258;50.376;8.742;2023-11-21T05:05:19;144.03;;;116.43;;
14348;SDS011;7258;50.376;8.742;2023-11-21T05:07:23;76.97;;;62.50;;
14348;SDS011;7258;50.376;8.742;2023-11-21T05:09:32;133.37;;;112.10;;
14348;SDS011;7258;50.376;8.742;2023-11-21T05:11:35;31.80;;;26.83;;
14348;SDS011;7258;50.376;8.742;2023-11-21T05:13:37;13.57;;;6.90;;
14348;SDS011;7258;50.376;8.742;2023-11-21T05:15:40;8.37;;;4.43;;
14348;SDS011;7258;50.376;8.742;2023-11-21T05:17:43;32.47;;;24.73;;
14348;SDS011;7258;50.376;8.742;2023-11-21T05:19:47;51.97;;;45.40;;
14348;SDS011;7258;50.376;8.742;2023-11-21T05:21:50;29.80;;;21.07;;
14348;SDS011;7258;50.376;8.742;2023-11-21T05:23:54;18.77;;;9.83;;
14348;SDS011;7258;50.376;8.742;2023-11-21T05:25:57;18.83;;;10.90;;
14348;SDS011;7258;50.376;8.742;2023-11-21T05:28:00;34.03;;;15.57;;
14348;SDS011;7258;50.376;8.742;2023-11-21T05:30:04;34.30;;;18.13;;
14348;SDS011;7258;50.376;8.742;2023-11-21T05:32:10;45.93;;;21.00;;
14348;SDS011;7258;50.376;8.742;2023-11-21T05:34:13;41.23;;;18.40;;
14348;SDS011;7258;50.376;8.742;2023-11-21T05:36:19;45.13;;;20.33;;
14348;SDS011;7258;50.376;8.742;2023-11-21T05:38:21;235.40;;;183.90;;
14348;SDS011;7258;50.376;8.742;2023-11-21T05:40:25;58.00;;;31.33;;
14348;SDS011;7258;50.376;8.742;2023-11-21T05:42:31;51.73;;;19.93;;
14348;SDS011;7258;50.376;8.742;2023-11-21T05:44:33;100.67;;;75.67;;
14348;SDS011;7258;50.376;8.742;2023-11-21T05:46:36;61.77;;;23.80;;
14348;SDS011;7258;50.376;8.742;2023-11-21T05:48:39;58.73;;;22.67;;
14348;SDS011;7258;50.376;8.742;2023-11-21T05:50:42;68.33;;;26.83;;
14348;SDS011;7258;50.376;8.742;2023-11-21T05:52:45;71.30;;;26.03;;
14348;SDS011;7258;50.376;8.742;2023-11-21T05:54:49;66.17;;;25.43;;
14348;SDS011;7258;50.376;8.742;2023-11-21T05:56:52;61.53;;;23.73;;
14348;SDS011;7258;50.376;8.742;2023-11-21T05:58:55;56.80;;;22.63;;
14348;SDS011;7258;50.376;8.742;2023-11-21T06:00:58;69.73;;;26.63;;
14348;SDS011;7258;50.376;8.742;2023-11-21T06:03:00;88.63;;;33.23;;
14348;SDS011;7258;50.376;8.742;2023-11-21T06:05:03;60.53;;;24.60;;
14348;SDS011;7258;50.376;8.742;2023-11-21T06:07:06;69.80;;;24.37;;
14348;SDS011;7258;50.376;8.742;2023-11-21T06:09:09;64.03;;;22.47;;
14348;SDS011;7258;50.376;8.742;2023-11-21T06:11:13;82.57;;;32.70;;
14348;SDS011;7258;50.376;8.742;2023-11-21T06:13:19;86.90;;;42.33;;
14348;SDS011;7258;50.376;8.742;2023-11-21T06:15:26;63.53;;;23.67;;
14348;SDS011;7258;50.376;8.742;2023-11-21T06:17:29;79.27;;;26.43;;
14348;SDS011;7258;50.376;8.742;2023-11-21T06:19:31;60.87;;;24.23;;
14348;SDS011;7258;50.376;8.742;2023-11-21T06:21:33;68.43;;;24.60;;
14348;SDS011;7258;50.376;8.742;2023-11-21T06:23:36;81.93;;;27.77;;
14348;SDS011;7258;50.376;8.742;2023-11-21T06:25:40;71.43;;;25.23;;
14348;SDS011;7258;50.376;8.742;2023-11-21T06:27:43;72.50;;;24.43;;
14348;SDS011;7258;50.376;8.742;2023-11-21T06:29:48;66.53;;;27.90;;
14348;SDS011;7258;50.376;8.742;2023-11-21T06:31:51;68.00;;;31.87;;
14348;SDS011;7258;50.376;8.742;2023-11-21T06:33:56;65.03;;;25.03;;
14348;SDS011;7258;50.376;8.742;2023-11-21T06:36:00;89.73;;;37.10;;
14348;SDS011;7258;50.376;8.742;2023-11-21T06:38:04;76.13;;;27.40;;
14348;SDS011;7258;50.376;8.742;2023-11-21T06:40:07;65.50;;;23.47;;
14348;SDS011;7258;50.376;8.742;2023-11-21T06:42:10;76.77;;;24.20;;
14348;SDS011;7258;50.376;8.742;2023-11-21T06:44:14;78.77;;;24.90;;
14348;SDS011;7258;50.376;8.742;2023-11-21T06:46:18;87.13;;;25.40;;
14348;SDS011;7258;50.376;8.742;2023-11-21T06:48:21;84.87;;;26.77;;
14348;SDS011;7258;50.376;8.742;2023-11-21T06:50:24;84.77;;;26.13;;
14348;SDS011;7258;50.376;8.742;2023-11-21T06:52:26;84.23;;;26.30;;
14348;SDS011;7258;50.376;8.742;2023-11-21T06:54:30;74.27;;;26.00;;
14348;SDS011;7258;50.376;8.742;2023-11-21T06:56:34;90.13;;;33.47;;
14348;SDS011;7258;50.376;8.742;2023-11-21T06:58:37;79.80;;;26.90;;
14348;SDS011;7258;50.376;8.742;2023-11-21T07:00:40;109.20;;;29.87;;
14348;SDS011;7258;50.376;8.742;2023-11-21T07:02:49;112.67;;;29.47;;
14348;SDS011;7258;50.376;8.742;2023-11-21T07:04:52;110.03;;;29.97;;
14348;SDS011;7258;50.376;8.742;2023-11-21T07:06:55;128.07;;;30.17;;
14348;SDS011;7258;50.376;8.742;2023-11-21T07:08:58;124.97;;;29.77;;
14348;SDS011;7258;50.376;8.742;2023-11-21T07:11:04;101.97;;;28.67;;
14348;SDS011;7258;50.376;8.742;2023-11-21T07:13:09;125.93;;;31.90;;
14348;SDS011;7258;50.376;8.742;2023-11-21T07:15:13;125.83;;;35.93;;
14348;SDS011;7258;50.376;8.742;2023-11-21T07:17:16;124.93;;;30.17;;
14348;SDS011;7258;50.376;8.742;2023-11-21T07:19:20;129.53;;;35.23;;
14348;SDS011;7258;50.376;8.742;2023-11-21T07:21:23;115.70;;;37.30;;
14348;SDS011;7258;50.376;8.742;2023-11-21T07:23:26;114.07;;;34.57;;
14348;SDS011;7258;50.376;8.742;2023-11-21T07:25:29;120.73;;;29.97;;
14348;SDS011;7258;50.376;8.742;2023-11-21T07:27:33;102.30;;;30.17;;
14348;SDS011;7258;50.376;8.742;2023-11-21T07:29:37;119.80;;;33.37;;
14348;SDS011;7258;50.376;8.742;2023-11-21T07:31:41;123.10;;;34.87;;
14348;SDS011;7258;50.376;8.742;2023-11-21T07:33:43;113.20;;;32.00;;
14348;SDS011;7258;50.376;8.742;2023-11-21T07:35:49;115.83;;;30.43;;
14348;SDS011;7258;50.376;8.742;2023-11-21T07:37:53;111.43;;;30.03;;
14348;SDS011;7258;50.376;8.742;2023-11-21T07:39:55;110.13;;;29.70;;
14348;SDS011;7258;50.376;8.742;2023-11-21T07:41:58;110.53;;;36.47;;
14348;SDS011;7258;50.376;8.742;2023-11-21T07:44:01;109.77;;;33.87;;
14348;SDS011;7258;50.376;8.742;2023-11-21T07:46:04;108.20;;;29.43;;
14348;SDS011;7258;50.376;8.742;2023-11-21T07:48:07;94.40;;;31.23;;
14348;SDS011;7258;50.376;8.742;2023-11-21T07:50:10;94.87;;;27.17;;
14348;SDS011;7258;50.376;8.742;2023-11-21T07:52:14;82.90;;;26.23;;
14348;SDS011;7258;50.376;8.742;2023-11-21T07:54:18;84.77;;;26.10;;
14348;SDS011;7258;50.376;8.742;2023-11-21T07:56:22;83.90;;;27.63;;
14348;SDS011;7258;50.376;8.742;2023-11-21T07:58:25;80.07;;;26.27;;
14348;SDS011;7258;50.376;8.742;2023-11-21T08:00:28;84.80;;;27.17;;
14348;SDS011;7258;50.376;8.742;2023-11-21T08:02:32;75.40;;;25.27;;
14348;SDS011;7258;50.376;8.742;2023-11-21T08:04:35;77.13;;;25.97;;
14348;SDS011;7258;50.376;8.742;2023-11-21T08:06:38;76.27;;;25.67;;
14348;SDS011;7258;50.376;8.742;2023-11-21T08:08:44;64.37;;;24.73;;
14348;SDS011;7258;50.376;8.742;2023-11-21T08:10:47;63.83;;;24.03;;
14348;SDS011;7258;50.376;8.742;2023-11-21T08:12:57;61.23;;;23.13;;
14348;SDS011;7258;50.376;8.742;2023-11-21T08:14:59;58.53;;;22.70;;
14348;SDS011;7258;50.376;8.742;2023-11-21T08:17:04;52.17;;;21.63;;
14348;SDS011;7258;50.376;8.742;2023-11-21T08:19:07;50.37;;;21.90;;
14348;SDS011;7258;50.376;8.742;2023-11-21T08:21:12;44.90;;;20.90;;
14348;SDS011;7258;50.376;8.742;2023-11-21T08:23:15;44.97;;;19.70;;
14348;SDS011;7258;50.376;8.742;2023-11-21T08:25:19;43.03;;;20.40;;
14348;SDS011;7258;50.376;8.742;2023-11-21T08:27:23;42.87;;;19.73;;
14348;SDS011;7258;50.376;8.742;2023-11-21T08:29:26;45.83;;;20.37;;
14348;SDS011;7258;50.376;8.742;2023-11-21T08:31:29;45.50;;;20.27;;
14348;SDS011;7258;50.376;8.742;2023-11-21T08:33:32;43.27;;;19.17;;
14348;SDS011;7258;50.376;8.742;2023-11-21T08:35:35;37.77;;;18.57;;
14348;SDS011;7258;50.376;8.742;2023-11-21T08:37:37;44.57;;;19.43;;
14348;SDS011;7258;50.376;8.742;2023-11-21T08:39:40;36.40;;;17.30;;
14348;SDS011;7258;50.376;8.742;2023-11-21T08:41:45;37.77;;;18.23;;
14348;SDS011;7258;50.376;8.742;2023-11-21T08:43:47;43.47;;;19.30;;
14348;SDS011;7258;50.376;8.742;2023-11-21T08:45:52;38.43;;;17.87;;
14348;SDS011;7258;50.376;8.742;2023-11-21T08:47:55;38.83;;;18.87;;
14348;SDS011;7258;50.376;8.742;2023-11-21T08:49:57;41.80;;;19.33;;
14348;SDS011;7258;50.376;8.742;2023-11-21T08:52:00;44.87;;;18.97;;
14348;SDS011;7258;50.376;8.742;2023-11-21T08:54:03;39.13;;;20.13;;
14348;SDS011;7258;50.376;8.742;2023-11-21T08:56:11;39.80;;;20.43;;
14348;SDS011;7258;50.376;8.742;2023-11-21T08:58:16;31.47;;;17.93;;
14348;SDS011;7258;50.376;8.742;2023-11-21T09:00:19;34.07;;;18.53;;
14348;SDS011;7258;50.376;8.742;2023-11-21T09:02:23;31.77;;;18.07;;
14348;SDS011;7258;50.376;8.742;2023-11-21T09:04:28;32.83;;;18.53;;
14348;SDS011;7258;50.376;8.742;2023-11-21T09:06:31;35.63;;;17.60;;
14348;SDS011;7258;50.376;8.742;2023-11-21T09:08:35;35.57;;;18.93;;
14348;SDS011;7258;50.376;8.742;2023-11-21T09:10:38;29.93;;;17.27;;
14348;SDS011;7258;50.376;8.742;2023-11-21T09:12:43;23.73;;;15.33;;
14348;SDS011;7258;50.376;8.742;2023-11-21T09:14:47;26.53;;;15.67;;
14348;SDS011;7258;50.376;8.742;2023-11-21T09:16:51;23.27;;;15.60;;
14348;SDS011;7258;50.376;8.742;2023-11-21T09:18:54;23.13;;;15.17;;
14348;SDS011;7258;50.376;8.742;2023-11-21T09:20:59;18.37;;;13.70;;
14348;SDS011;7258;50.376;8.742;2023-11-21T09:23:01;19.53;;;13.07;;
14348;SDS011;7258;50.376;8.742;2023-11-21T09:25:05;15.80;;;12.10;;
14348;SDS011;7258;50.376;8.742;2023-11-21T09:27:09;20.30;;;12.07;;
14348;SDS011;7258;50.376;8.742;2023-11-21T09:29:12;14.57;;;11.20;;
14348;SDS011;7258;50.376;8.742;2023-11-21T09:31:16;13.30;;;9.97;;
14348;SDS011;7258;50.376;8.742;2023-11-21T09:33:23;15.60;;;10.57;;
14348;SDS011;7258;50.376;8.742;2023-11-21T09:35:26;14.37;;;10.00;;
14348;SDS011;7258;50.376;8.742;2023-11-21T09:37:30;12.67;;;10.47;;
14348;SDS011;7258;50.376;8.742;2023-11-21T09:39:33;12.13;;;9.77;;
14348;SDS011;7258;50.376;8.742;2023-11-21T09:41:37;13.03;;;9.60;;
14348;SDS011;7258;50.376;8.742;2023-11-21T09:43:46;14.60;;;9.80;;
14348;SDS011;7258;50.376;8.742;2023-11-21T09:45:56;12.33;;;9.40;;
14348;SDS011;7258;50.376;8.742;2023-11-21T09:48:03;12.30;;;9.50;;
14348;SDS011;7258;50.376;8.742;2023-11-21T09:50:07;13.83;;;9.57;;
14348;SDS011;7258;50.376;8.742;2023-11-21T09:52:12;11.60;;;8.87;;
14348;SDS011;7258;50.376;8.742;2023-11-21T09:54:26;15.95;;;9.05;;
14348;SDS011;7258;50.376;8.742;2023-11-21T09:56:30;10.70;;;8.90;;
14348;SDS011;7258;50.376;8.742;2023-11-21T09:58:33;10.45;;;8.98;;
14348;SDS011;7258;50.376;8.742;2023-11-21T10:00:36;11.83;;;9.13;;
14348;SDS011;7258;50.376;8.742;2023-11-21T10:02:41;14.13;;;9.27;;
14348;SDS011;7258;50.376;8.742;2023-11-21T10:04:45;11.30;;;9.33;;
14348;SDS011;7258;50.376;8.742;2023-11-21T10:06:49;10.48;;;8.02;;
14348;SDS011;7258;50.376;8.742;2023-11-21T10:08:54;13.48;;;8.35;;
14348;SDS011;7258;50.376;8.742;2023-11-21T10:10:58;9.40;;;8.05;;
14348;SDS011;7258;50.376;8.742;2023-11-21T10:13:02;9.98;;;8.48;;
14348;SDS011;7258;50.376;8.742;2023-11-21T10:15:08;12.10;;;8.00;;
14348;SDS011;7258;50.376;8.742;2023-11-21T10:17:17;8.88;;;7.63;;
14348;SDS011;7258;50.376;8.742;2023-11-21T10:19:22;10.30;;;7.53;;
14348;SDS011;7258;50.376;8.742;2023-11-21T10:21:27;12.18;;;8.30;;
14348;SDS011;7258;50.376;8.742;2023-11-21T10:23:30;7.95;;;7.15;;
14348;SDS011;7258;50.376;8.742;2023-11-21T10:25:33;9.68;;;7.22;;
14348;SDS011;7258;50.376;8.742;2023-11-21T10:27:37;12.27;;;7.38;;
14348;SDS011;7258;50.376;8.742;2023-11-21T10:29:40;11.38;;;7.75;;
14348;SDS011;7258;50.376;8.742;2023-11-21T10:31:43;9.13;;;7.05;;
14348;SDS011;7258;50.376;8.742;2023-11-21T10:33:47;11.63;;;7.60;;
14348;SDS011;7258;50.376;8.742;2023-11-21T10:35:50;9.70;;;7.15;;
14348;SDS011;7258;50.376;8.742;2023-11-21T10:38:00;11.35;;;7.07;;
14348;SDS011;7258;50.376;8.742;2023-11-21T10:40:04;13.43;;;7.75;;
14348;SDS011;7258;50.376;8.742;2023-11-21T10:42:08;9.18;;;7.30;;
14348;SDS011;7258;50.376;8.742;2023-11-21T10:44:13;8.77;;;7.38;;
14348;SDS011;7258;50.376;8.742;2023-11-21T10:46:17;10.90;;;6.60;;
14348;SDS011;7258;50.376;8.742;2023-11-21T10:48:22;10.52;;;7.20;;
14348;SDS011;7258;50.376;8.742;2023-11-21T10:50:26;10.70;;;7.05;;
14348;SDS011;7258;50.376;8.742;2023-11-21T10:52:29;12.57;;;7.18;;
14348;SDS011;7258;50.376;8.742;2023-11-21T10:54:33;11.82;;;7.13;;
14348;SDS011;7258;50.376;8.742;2023-11-21T10:56:37;8.32;;;6.65;;
14348;SDS011;7258;50.376;8.742;2023-11-21T10:58:42;9.07;;;6.90;;
14348;SDS011;7258;50.376;8.742;2023-11-21T11:00:44;8.95;;;6.28;;
14348;SDS011;7258;50.376;8.742;2023-11-21T11:02:49;13.35;;;7.32;;
14348;SDS011;7258;50.376;8.742;2023-11-21T11:04:52;11.15;;;6.97;;
14348;SDS011;7258;50.376;8.742;2023-11-21T11:06:57;10.40;;;6.22;;
14348;SDS011;7258;50.376;8.742;2023-11-21T11:09:06;9.10;;;6.38;;
14348;SDS011;7258;50.376;8.742;2023-11-21T11:11:11;9.57;;;6.68;;
14348;SDS011;7258;50.376;8.742;2023-11-21T11:13:15;7.97;;;6.43;;
14348;SDS011;7258;50.376;8.742;2023-11-21T11:15:19;9.68;;;7.10;;
14348;SDS011;7258;50.376;8.742;2023-11-21T11:17:22;8.73;;;6.57;;
14348;SDS011;7258;50.376;8.742;2023-11-21T11:19:25;11.40;;;6.78;;
14348;SDS011;7258;50.376;8.742;2023-11-21T11:21:34;11.40;;;5.90;;
14348;SDS011;7258;50.376;8.742;2023-11-21T11:23:52;6.97;;;5.65;;
14348;SDS011;7258;50.376;8.742;2023-11-21T11:26:12;7.68;;;5.70;;
14348;SDS011;7258;50.376;8.742;2023-11-21T11:28:29;10.38;;;6.47;;
14348;SDS011;7258;50.376;8.742;2023-11-21T11:30:42;9.50;;;6.03;;
14348;SDS011;7258;50.376;8.742;2023-11-21T11:33:06;8.95;;;6.03;;
14348;SDS011;7258;50.376;8.742;2023-11-21T11:35:21;7.45;;;5.85;;
14348;SDS011;7258;50.376;8.742;2023-11-21T11:37:45;6.03;;;5.20;;
14348;SDS011;7258;50.376;8.742;2023-11-21T11:39:56;9.80;;;6.25;;
14348;SDS011;7258;50.376;8.742;2023-11-21T11:42:08;6.85;;;5.88;;
14348;SDS011;7258;50.376;8.742;2023-11-21T11:44:50;8.55;;;6.38;;
14348;SDS011;7258;50.376;8.742;2023-11-21T11:47:25;10.45;;;6.13;;
14348;SDS011;7258;50.376;8.742;2023-11-21T11:49:43;8.38;;;6.00;;
14348;SDS011;7258;50.376;8.742;2023-11-21T11:52:37;10.05;;;5.95;;
14348;SDS011;7258;50.376;8.742;2023-11-21T11:54:56;7.50;;;6.10;;
14348;SDS011;7258;50.376;8.742;2023-11-21T11:56:59;11.25;;;6.90;;
14348;SDS011;7258;50.376;8.742;2023-11-21T11:59:03;9.75;;;6.32;;
14348;SDS011;7258;50.376;8.742;2023-11-21T12:01:10;9.88;;;6.32;;
14348;SDS011;7258;50.376;8.742;2023-11-21T12:03:15;9.40;;;6.05;;
14348;SDS011;7258;50.376;8.742;2023-11-21T12:05:18;11.25;;;6.22;;
14348;SDS011;7258;50.376;8.742;2023-11-21T12:07:25;9.32;;;6.03;;
14348;SDS011;7258;50.376;8.742;2023-11-21T12:09:43;10.98;;;6.13;;
14348;SDS011;7258;50.376;8.742;2023-11-21T12:11:48;7.45;;;5.68;;
14348;SDS011;7258;50.376;8.742;2023-11-21T12:13:51;7.22;;;6.10;;
14348;SDS011;7258;50.376;8.742;2023-11-21T12:15:56;8.38;;;5.90;;
14348;SDS011;7258;50.376;8.742;2023-11-21T12:17:59;6.75;;;5.95;;
14348;SDS011;7258;50.376;8.742;2023-11-21T12:20:02;7.88;;;5.80;;
14348;SDS011;7258;50.376;8.742;2023-11-21T12:22:05;7.75;;;5.97;;